createdAt,value
2018-11-22T00:30:00.284Z,27.33
2018-11-22T00:38:12.320Z,27.23
2018-11-22T00:44:04.495Z,27.80
2018-11-22T00:49:44.926Z,27.70
2018-11-22T00:52:32.479Z,27.67
2018-11-22T01:07:33.245Z,26.77
2018-11-22T01:13:03.425Z,27.17
2018-11-22T01:15:43.442Z,25.87
2018-11-22T01:18:23.362Z,24.97
2018-11-22T01:21:01.463Z,26.40
2018-11-22T01:48:33.076Z,24.40
2018-11-22T01:51:01.274Z,26.40
2018-11-22T01:53:48.851Z,26.33
2018-11-22T01:56:36.424Z,27.50
2018-11-22T02:11:22.446Z,25.20
2018-11-22T02:14:10.731Z,24.47
2018-11-22T02:16:39.251Z,24.43
2018-11-22T02:19:26.777Z,24.57
2018-11-22T02:22:20.292Z,24.17
2018-11-22T02:34:17.501Z,23.67
2018-11-22T02:49:34.462Z,25.23
2018-11-22T02:52:02.651Z,23.87
2018-11-22T02:54:30.861Z,25.77
2018-11-22T03:00:18.876Z,23.40
2018-11-22T03:06:02.122Z,24.50
2018-11-22T03:12:07.510Z,23.90
2018-11-22T03:17:47.072Z,24.33
2018-11-22T03:20:27.166Z,24.90
2018-11-22T03:23:07.089Z,21.73
2018-11-22T03:25:46.923Z,23.90
2018-11-22T03:28:15.239Z,25.07
2018-11-22T03:31:02.784Z,24.67
2018-11-22T03:45:27.239Z,32.47
2018-11-22T03:48:14.741Z,32.73
2018-11-22T03:50:43.133Z,31.80
2018-11-22T03:53:30.630Z,34.13
2018-11-22T04:02:21.541Z,32.63
2018-11-22T04:08:26.538Z,33.60
2018-11-22T04:11:22.782Z,32.17
2018-11-22T04:14:02.776Z,32.43
2018-11-22T04:16:43.074Z,32.93
2018-11-22T04:19:23.252Z,34.43
2018-11-22T04:22:03.347Z,31.60
2018-11-22T04:24:31.570Z,32.93
2018-11-22T04:27:19.244Z,32.53
2018-11-22T04:29:47.442Z,31.53
2018-11-22T04:32:35.008Z,34.37
2018-11-22T04:35:03.291Z,30.70
2018-11-22T04:37:50.993Z,32.80
2018-11-22T04:40:44.465Z,30.87
2018-11-22T04:49:16.926Z,30.37
2018-11-22T04:52:04.473Z,29.83
2018-11-22T04:54:52.033Z,30.83
2018-11-22T05:06:23.197Z,31.93
2018-11-22T05:09:11.056Z,30.93
2018-11-22T05:11:39.139Z,33.20
2018-11-22T05:14:26.651Z,32.80
2018-11-22T05:53:53.852Z,32.30
2018-11-22T06:12:04.278Z,32.77
2018-11-22T06:14:32.696Z,31.87
2018-11-22T06:20:20.991Z,33.63
2018-11-22T06:23:08.607Z,32.17
2018-11-22T06:28:46.493Z,32.37
2018-11-22T06:31:34.074Z,31.97
2018-11-22T07:07:52.480Z,33.40
2018-11-22T07:10:21.323Z,32.97
2018-11-22T07:13:09.034Z,32.50
2018-11-22T07:28:11.671Z,32.80
2018-11-22T07:36:54.124Z,33.53
2018-11-22T07:39:22.066Z,34.37
2018-11-22T07:42:10.022Z,33.80
2018-11-22T07:44:59.227Z,33.13
2018-11-22T08:18:06.153Z,33.73
2018-11-22T08:27:00.888Z,32.10
2018-11-22T08:32:30.784Z,32.23
2018-11-22T08:35:18.725Z,33.50
2018-11-22T08:44:04.995Z,33.57
2018-11-22T08:46:52.707Z,33.17
2018-11-22T08:49:45.147Z,32.50
2018-11-22T08:52:26.026Z,31.63
2018-11-22T08:55:06.254Z,33.90
2018-11-22T09:00:32.932Z,33.17
2018-11-22T09:03:11.027Z,32.37
2018-11-22T09:05:39.201Z,32.87
2018-11-22T09:11:26.708Z,31.23
2018-11-22T09:14:14.257Z,30.83
2018-11-22T09:19:41.309Z,30.80
2018-11-22T09:22:46.450Z,30.30
2018-11-22T09:28:13.037Z,32.53
2018-11-22T09:31:01.481Z,30.83
2018-11-22T09:37:09.599Z,30.50
2018-11-22T09:46:00.758Z,32.40
2018-11-22T09:57:54.167Z,30.93
2018-11-22T10:00:41.653Z,31.10
2018-11-22T10:18:19.859Z,29.27
2018-11-22T10:21:07.325Z,29.70
2018-11-22T10:24:01.410Z,29.63
2018-11-22T10:33:05.127Z,30.17
2018-11-22T10:41:33.099Z,29.90
2018-11-22T10:55:14.610Z,29.13
2018-11-22T10:58:02.302Z,29.70
2018-11-22T11:00:58.767Z,28.40
2018-11-22T11:03:55.147Z,28.37
2018-11-22T11:06:43.294Z,29.57
2018-11-22T11:09:30.853Z,29.03
2018-11-22T11:30:26.028Z,27.97
2018-11-22T11:38:48.506Z,27.87
2018-11-22T11:41:36.226Z,28.60
2018-11-22T11:50:11.655Z,26.73
2018-11-22T11:52:39.949Z,28.07
2018-11-22T11:55:27.528Z,28.23
2018-11-22T12:10:33.958Z,27.33
2018-11-22T12:13:12.458Z,26.53
2018-11-22T12:15:44.378Z,27.37
2018-11-22T12:18:36.636Z,25.63
2018-11-22T12:24:32.899Z,26.40
2018-11-22T12:27:26.329Z,27.70
2018-11-22T12:30:19.690Z,26.57
2018-11-22T12:33:01.242Z,28.20
2018-11-22T12:36:08.296Z,25.17
2018-11-22T12:39:01.525Z,25.77
2018-11-22T12:51:04.729Z,27.47
2018-11-22T12:53:57.887Z,26.97
2018-11-22T13:05:47.427Z,26.53
2018-11-22T13:11:13.985Z,26.00
2018-11-22T13:14:01.744Z,26.17
2018-11-22T13:16:30.110Z,24.60
2018-11-22T13:19:35.699Z,26.30
2018-11-22T13:22:23.716Z,26.50
2018-11-22T13:24:52.307Z,26.20
2018-11-22T13:27:20.798Z,26.90
2018-11-22T13:30:08.510Z,26.47
2018-11-22T13:33:01.340Z,26.47
2018-11-22T13:48:07.705Z,28.47
2018-11-22T13:51:01.027Z,26.83
2018-11-22T13:59:58.398Z,27.80
2018-11-22T14:02:25.097Z,27.73
2018-11-22T14:05:12.677Z,26.67
2018-11-22T14:08:00.285Z,28.67
2018-11-22T14:13:34.329Z,27.37
2018-11-22T14:16:21.875Z,26.53
2018-11-22T14:27:49.728Z,26.33
2018-11-22T14:30:37.257Z,27.17
2018-11-22T14:36:31.382Z,26.00
2018-11-22T14:54:43.566Z,26.53
2018-11-22T15:09:52.844Z,27.23
2018-11-22T15:21:54.568Z,29.70
2018-11-22T15:27:15.450Z,27.60
2018-11-22T15:39:11.178Z,28.87
2018-11-22T15:48:10.725Z,27.70
2018-11-22T15:57:17.807Z,27.53
2018-11-22T16:09:49.925Z,28.10
2018-11-22T16:12:18.273Z,27.07
2018-11-22T16:14:46.716Z,27.53
2018-11-22T16:17:15.440Z,28.83
2018-11-22T16:19:43.762Z,28.13
2018-11-22T16:22:12.237Z,30.47
2018-11-22T16:24:41.036Z,30.03
2018-11-22T16:27:09.355Z,29.20
2018-11-22T16:29:37.616Z,29.73
2018-11-22T16:32:06.001Z,29.03
2018-11-22T16:34:34.799Z,28.47
2018-11-22T16:37:03.410Z,27.83
2018-11-22T16:39:31.625Z,29.13
2018-11-22T16:41:59.789Z,27.80
2018-11-22T16:44:28.395Z,28.00
2018-11-22T16:46:57.091Z,29.77
2018-11-22T16:49:29.822Z,29.37
2018-11-22T16:51:58.337Z,29.07
2018-11-22T16:54:38.979Z,29.50
2018-11-22T16:57:11.629Z,27.37
2018-11-22T16:59:39.988Z,29.00
2018-11-22T17:02:09.129Z,28.33
2018-11-22T17:04:43.938Z,28.17
2018-11-22T17:07:12.777Z,28.03
2018-11-22T17:09:41.174Z,28.97
2018-11-22T17:12:09.496Z,27.80
2018-11-22T17:14:38.122Z,32.33
2018-11-22T17:17:06.730Z,32.63
2018-11-22T17:19:35.475Z,31.63
2018-11-22T17:22:03.728Z,31.47
2018-11-22T17:24:31.860Z,27.97
2018-11-22T17:27:00.429Z,26.43
2018-11-22T17:29:29.104Z,28.43
2018-11-22T17:31:57.952Z,28.13
2018-11-22T17:34:26.354Z,27.90
2018-11-22T17:36:54.773Z,28.33
2018-11-22T17:39:23.563Z,27.90
2018-11-22T17:41:51.918Z,29.27
2018-11-22T17:44:20.699Z,28.07
2018-11-22T17:46:48.924Z,26.83
2018-11-22T17:49:17.080Z,28.70
2018-11-22T17:51:45.432Z,27.87
2018-11-22T17:54:13.722Z,27.87
2018-11-22T17:56:42.104Z,27.63
2018-11-22T17:59:11.137Z,28.07
2018-11-22T18:01:39.491Z,28.03
2018-11-22T18:04:07.940Z,26.57
2018-11-22T18:06:36.594Z,25.93
2018-11-22T18:09:06.664Z,28.27
2018-11-22T18:11:35.404Z,27.73
2018-11-22T18:14:04.023Z,27.40
2018-11-22T18:16:32.675Z,27.00
2018-11-22T18:19:00.999Z,26.30
2018-11-22T18:21:29.667Z,27.33
2018-11-22T18:23:59.215Z,27.37
2018-11-22T18:26:27.603Z,25.93
2018-11-22T18:28:56.199Z,26.60
2018-11-22T18:31:24.311Z,26.13
2018-11-22T18:33:52.560Z,26.53
2018-11-22T18:36:21.086Z,26.13
2018-11-22T18:38:49.859Z,26.00
2018-11-22T18:41:18.472Z,25.57
2018-11-22T18:43:47.467Z,26.90
2018-11-22T18:46:16.163Z,26.47
2018-11-22T18:48:44.891Z,26.07
2018-11-22T18:51:14.958Z,26.00
2018-11-22T18:53:43.538Z,26.40
2018-11-22T18:56:12.268Z,26.40
2018-11-22T18:58:42.724Z,25.43
2018-11-22T19:01:11.355Z,26.27
2018-11-22T19:03:41.669Z,26.10
2018-11-22T19:06:11.448Z,25.40
2018-11-22T19:08:40.180Z,24.93
2018-11-22T19:11:09.238Z,25.30
2018-11-22T19:13:37.731Z,24.43
2018-11-22T19:16:07.273Z,25.10
2018-11-22T19:18:35.855Z,26.17
2018-11-22T19:21:04.338Z,24.23
2018-11-22T19:23:32.859Z,24.70
2018-11-22T19:26:02.085Z,25.53
2018-11-22T19:28:30.455Z,24.73
2018-11-22T19:30:59.069Z,25.07
2018-11-22T19:33:27.377Z,25.87
2018-11-22T19:35:56.367Z,24.40
2018-11-22T19:38:24.992Z,24.67
2018-11-22T19:40:53.762Z,23.40
2018-11-22T19:43:22.439Z,24.33
2018-11-22T19:45:50.821Z,24.97
2018-11-22T19:48:21.334Z,23.60
2018-11-22T19:50:50.699Z,23.90
2018-11-22T19:53:19.187Z,24.37
2018-11-22T19:55:47.512Z,23.60
2018-11-22T19:58:16.746Z,22.77
2018-11-22T20:00:45.081Z,22.60
2018-11-22T20:03:13.581Z,21.80
2018-11-22T20:05:42.518Z,23.20
2018-11-22T20:08:12.718Z,23.30
2018-11-22T20:10:42.817Z,23.27
2018-11-22T20:13:11.535Z,23.73
2018-11-22T20:15:40.155Z,21.70
2018-11-22T20:18:09.819Z,22.07
2018-11-22T20:20:38.462Z,22.47
2018-11-22T20:23:06.755Z,22.40
2018-11-22T20:25:35.430Z,22.50
2018-11-22T20:28:05.214Z,22.27
2018-11-22T20:30:35.341Z,21.97
2018-11-22T20:33:03.701Z,22.37
2018-11-22T20:35:32.522Z,21.10
2018-11-22T20:38:01.273Z,22.53
2018-11-22T20:40:29.784Z,22.67
2018-11-22T20:42:58.934Z,23.27
2018-11-22T20:45:28.528Z,22.60
2018-11-22T20:47:58.644Z,22.67
2018-11-22T20:50:27.630Z,22.97
2018-11-22T20:52:56.255Z,22.53
2018-11-22T20:55:26.542Z,21.40
2018-11-22T20:57:56.493Z,22.03
2018-11-22T21:00:26.888Z,22.53
2018-11-22T21:02:55.506Z,20.33
2018-11-22T21:05:25.637Z,22.43
2018-11-22T21:07:54.259Z,21.50
2018-11-22T21:10:24.185Z,22.17
2018-11-22T21:12:52.925Z,21.83
2018-11-22T21:15:24.109Z,21.40
2018-11-22T21:17:54.008Z,21.50
2018-11-22T21:20:24.386Z,21.40
2018-11-22T21:22:53.053Z,21.43
2018-11-22T21:25:22.131Z,20.50
2018-11-22T21:27:50.424Z,20.77
2018-11-22T21:30:21.541Z,20.40
2018-11-22T21:32:50.745Z,19.90
2018-11-22T21:35:19.570Z,19.90
2018-11-22T21:37:48.752Z,20.30
2018-11-22T21:40:17.621Z,22.03
2018-11-22T21:42:45.841Z,20.30
2018-11-22T21:45:15.342Z,20.83
2018-11-22T21:47:43.849Z,20.37
2018-11-22T21:50:12.883Z,21.07
2018-11-22T21:52:41.253Z,21.10
2018-11-22T21:55:11.849Z,19.97
2018-11-22T21:57:41.018Z,21.27
2018-11-22T22:00:26.228Z,20.17
2018-11-22T22:02:57.476Z,21.60
2018-11-22T22:05:25.907Z,19.67
2018-11-22T22:07:54.588Z,21.27
2018-11-22T22:10:22.912Z,21.37
2018-11-22T22:12:51.469Z,20.13
2018-11-22T22:15:21.416Z,20.67
2018-11-22T22:17:49.784Z,19.80
2018-11-22T22:20:35.197Z,20.73
2018-11-22T22:23:03.705Z,20.60
2018-11-22T22:25:32.371Z,19.70
2018-11-22T22:28:00.879Z,20.17
2018-11-22T22:30:31.758Z,21.10
2018-11-22T22:33:01.557Z,19.90
2018-11-22T22:35:29.742Z,19.23
2018-11-22T22:37:58.246Z,20.43
2018-11-22T22:40:27.737Z,19.17
2018-11-22T22:42:56.759Z,19.97
2018-11-22T22:45:26.511Z,19.93
2018-11-22T22:47:54.857Z,19.23
2018-11-22T22:50:24.236Z,18.60
2018-11-22T22:52:54.294Z,19.77
2018-11-22T22:55:22.835Z,18.90
2018-11-22T22:57:51.043Z,19.10
2018-11-22T23:00:25.776Z,20.00
2018-11-22T23:02:56.903Z,19.37
2018-11-22T23:05:26.079Z,20.00
2018-11-22T23:07:54.410Z,19.77
2018-11-22T23:10:23.658Z,20.70
2018-11-22T23:12:52.127Z,19.63
2018-11-22T23:15:20.875Z,20.67
2018-11-22T23:17:49.166Z,19.53
2018-11-22T23:20:20.135Z,19.60
2018-11-22T23:22:49.013Z,19.37
2018-11-22T23:25:18.427Z,19.10
2018-11-22T23:27:46.793Z,17.70
2018-11-22T23:30:18.649Z,19.07
2018-11-22T23:32:49.126Z,18.20
2018-11-22T23:35:17.882Z,19.33
2018-11-22T23:37:46.258Z,19.67
2018-11-22T23:40:15.920Z,19.00
2018-11-22T23:42:44.235Z,20.17
2018-11-22T23:45:13.714Z,19.50
2018-11-22T23:47:42.594Z,19.37
2018-11-22T23:50:13.285Z,18.93
2018-11-22T23:52:42.470Z,19.23
2018-11-22T23:55:10.652Z,19.07
2018-11-22T23:57:39.145Z,17.93
